createdAt,value
2023-05-22T00:01:06.929Z,13.75
2023-05-22T00:05:59.168Z,14.63
2023-05-22T00:10:49.190Z,15.00
2023-05-22T00:15:41.698Z,14.75
2023-05-22T00:20:38.899Z,14.90
2023-05-22T00:25:29.385Z,15.17
2023-05-22T00:30:21.666Z,16.00
2023-05-22T00:35:15.459Z,15.37
2023-05-22T00:40:06.533Z,15.33
2023-05-22T00:44:56.530Z,15.57
2023-05-22T00:49:49.402Z,15.47
2023-05-22T00:54:42.841Z,15.40
2023-05-22T00:59:34.227Z,16.10
2023-05-22T01:04:24.214Z,14.73
2023-05-22T01:09:14.986Z,15.15
2023-05-22T01:14:17.185Z,15.68
2023-05-22T01:19:22.944Z,13.82
2023-05-22T01:24:42.073Z,14.50
2023-05-22T01:29:48.344Z,14.52
2023-05-22T01:34:43.557Z,13.43
2023-05-22T01:39:34.515Z,13.00
2023-05-22T01:44:28.184Z,14.00
2023-05-22T01:49:21.632Z,13.60
2023-05-22T01:54:22.884Z,14.17
2023-05-22T01:59:21.574Z,14.88
2023-05-22T02:04:13.286Z,15.23
2023-05-22T02:09:06.512Z,14.60
2023-05-22T02:13:59.690Z,13.98
2023-05-22T02:18:49.677Z,14.82
2023-05-22T02:23:39.645Z,13.77
2023-05-22T02:28:30.148Z,14.63
2023-05-22T02:33:24.820Z,13.87
2023-05-22T02:38:14.815Z,14.80
2023-05-22T02:43:04.822Z,14.13
2023-05-22T02:47:57.311Z,13.65
2023-05-22T02:52:50.743Z,13.95
2023-05-22T02:57:44.679Z,14.63
2023-05-22T03:02:36.840Z,14.85
2023-05-22T03:07:27.323Z,16.48
2023-05-22T03:12:20.186Z,15.82
2023-05-22T03:17:11.117Z,16.07
2023-05-22T03:22:01.009Z,15.40
2023-05-22T03:26:52.333Z,15.35
2023-05-22T03:32:06.398Z,16.20
2023-05-22T03:36:58.165Z,16.52
2023-05-22T03:41:48.392Z,16.80
2023-05-22T03:46:38.754Z,17.00
2023-05-22T03:51:31.856Z,18.35
2023-05-22T03:56:21.762Z,18.58
2023-05-22T04:01:13.963Z,17.65
2023-05-22T04:06:04.716Z,19.55
2023-05-22T04:10:57.329Z,20.10
2023-05-22T04:15:47.744Z,22.23
2023-05-22T04:20:40.825Z,20.98
2023-05-22T04:25:31.825Z,21.63
2023-05-22T04:30:25.968Z,21.52
2023-05-22T04:35:18.833Z,22.33
2023-05-22T04:40:11.461Z,25.17
2023-05-22T04:45:04.055Z,26.75
2023-05-22T04:50:00.314Z,25.50
2023-05-22T04:54:52.488Z,25.98
2023-05-22T04:59:42.727Z,26.50
2023-05-22T05:04:34.357Z,25.90
2023-05-22T05:09:27.668Z,24.92
2023-05-22T05:14:18.416Z,24.33
2023-05-22T05:19:08.826Z,25.15
2023-05-22T05:23:59.271Z,22.88
2023-05-22T05:28:52.704Z,23.48
2023-05-22T05:33:43.710Z,23.03
2023-05-22T05:38:38.634Z,22.17
2023-05-22T05:43:29.286Z,22.67
2023-05-22T05:48:27.859Z,22.40
2023-05-22T05:53:18.969Z,21.85
2023-05-22T05:58:15.646Z,22.38
2023-05-22T06:03:22.940Z,22.48
2023-05-22T06:08:23.846Z,21.47
2023-05-22T06:13:14.360Z,22.07
2023-05-22T06:18:05.716Z,21.63
2023-05-22T06:22:56.248Z,22.33
2023-05-22T06:27:49.378Z,20.83
2023-05-22T06:32:40.898Z,21.60
2023-05-22T06:37:33.182Z,22.42
2023-05-22T06:42:27.341Z,22.27
2023-05-22T06:47:40.475Z,21.52
2023-05-22T06:52:32.098Z,22.67
2023-05-22T06:57:25.325Z,20.65
2023-05-22T07:02:17.455Z,22.80
2023-05-22T07:07:26.082Z,22.70
2023-05-22T07:12:16.649Z,22.50
2023-05-22T07:17:08.576Z,23.75
2023-05-22T07:22:04.401Z,24.20
2023-05-22T07:26:59.537Z,25.55
2023-05-22T07:31:50.007Z,24.70
2023-05-22T07:36:41.226Z,26.67
2023-05-22T07:41:31.764Z,26.63
2023-05-22T07:46:25.089Z,26.92
2023-05-22T07:51:23.352Z,27.85
2023-05-22T07:56:17.216Z,27.80
2023-05-22T08:01:09.634Z,28.00
2023-05-22T08:06:02.610Z,27.05
2023-05-22T08:16:00.288Z,28.35
2023-05-22T08:20:54.305Z,27.60
2023-05-22T08:25:47.622Z,26.65
2023-05-22T08:30:38.102Z,25.97
2023-05-22T08:35:28.382Z,26.42
2023-05-22T08:40:19.867Z,25.85
2023-05-22T08:45:16.435Z,23.70
2023-05-22T08:50:07.452Z,24.00
2023-05-22T08:55:01.973Z,21.75
2023-05-22T08:59:53.310Z,22.77
2023-05-22T09:04:46.274Z,22.60
2023-05-22T09:09:39.824Z,23.13
2023-05-22T09:14:31.464Z,21.38
2023-05-22T09:19:23.243Z,19.80
2023-05-22T09:24:16.442Z,19.10
2023-05-22T09:29:07.690Z,18.30
2023-05-22T09:33:58.616Z,18.50
2023-05-22T09:38:48.482Z,16.70
2023-05-22T09:43:41.185Z,18.15
2023-05-22T09:48:30.978Z,17.17
2023-05-22T09:53:22.565Z,16.80
2023-05-22T09:58:16.769Z,16.20
2023-05-22T10:03:12.779Z,16.97
2023-05-22T10:08:08.162Z,16.50
2023-05-22T10:13:01.682Z,15.97
2023-05-22T10:17:53.136Z,15.43
2023-05-22T10:22:46.217Z,15.70
2023-05-22T10:27:36.328Z,12.85
2023-05-22T10:32:36.399Z,17.10
2023-05-22T10:37:50.325Z,16.88
2023-05-22T10:42:41.125Z,20.80
2023-05-22T10:47:30.988Z,22.65
2023-05-22T10:52:22.195Z,24.08
2023-05-22T10:57:20.831Z,27.02
2023-05-22T11:02:23.098Z,24.42
2023-05-22T11:07:15.250Z,21.42
2023-05-22T11:12:28.914Z,23.40
2023-05-22T11:17:21.996Z,23.15
2023-05-22T11:22:13.689Z,24.10
2023-05-22T11:27:05.242Z,21.10
2023-05-22T11:31:58.232Z,21.27
2023-05-22T14:45:55.053Z,9.13
2023-05-22T14:50:45.062Z,8.43
2023-05-22T14:55:34.908Z,8.60
2023-05-22T15:00:24.849Z,8.52
2023-05-22T15:05:17.606Z,7.85
2023-05-22T15:10:08.506Z,6.47
2023-05-22T15:14:58.333Z,8.00
2023-05-22T15:19:49.161Z,7.30
2023-05-22T15:24:44.465Z,7.18
2023-05-22T15:29:34.309Z,6.30
2023-05-22T15:34:24.083Z,6.40
2023-05-22T15:39:13.996Z,6.85
2023-05-22T15:44:06.831Z,5.80
2023-05-22T15:48:57.442Z,6.05
2023-05-22T15:53:47.603Z,5.80
2023-05-22T15:58:37.525Z,5.18
2023-05-22T16:03:29.975Z,3.72
2023-05-22T16:08:20.108Z,2.30
2023-05-22T16:13:10.837Z,1.98
2023-05-22T16:18:01.351Z,2.00
2023-05-22T16:22:53.873Z,2.30
2023-05-22T16:27:43.864Z,2.85
2023-05-22T16:32:33.754Z,2.35
2023-05-22T16:37:24.030Z,2.20
2023-05-22T16:42:18.590Z,1.88
2023-05-22T16:47:08.851Z,1.45
2023-05-22T16:51:58.812Z,1.20
2023-05-22T16:56:48.939Z,1.55
2023-05-22T17:01:41.527Z,1.30
2023-05-22T17:06:32.027Z,1.55
2023-05-22T17:11:21.876Z,1.33
2023-05-22T17:16:12.049Z,1.63
2023-05-22T17:21:04.744Z,1.70
2023-05-22T17:25:55.386Z,2.03
2023-05-22T19:37:08.606Z,6.15
2023-05-22T19:41:58.643Z,6.35
2023-05-22T19:46:48.972Z,6.30
2023-05-22T19:51:39.538Z,6.20
